Time;durP1;ratioP1;P1;durP2;ratioP2;P2;SDS_P1;SDS_P2;PMS_P1;PMS_P2;Temp;Humidity;BMP_temperature;BMP_pressure;BME280_temperature;BME280_humidity;BME280_pressure;Samples;Min_cycle;Max_cycle;Signal;HPM_P1;HPM_P2
2023/10/09 00:01:58;;;;;;;27.02;17.20;;;18.10;99.90;;;;;;4264537;27;20043;-59
2023/10/09 00:04:02;;;;;;;25.88;16.55;;;18.10;99.90;;;;;;4264487;27;20043;-59
2023/10/09 00:06:05;;;;;;;30.08;16.77;;;18.00;99.90;;;;;;4264695;27;20091;-58
2023/10/09 00:08:09;;;;;;;26.17;15.82;;;18.00;99.90;;;;;;4264527;27;20047;-58
2023/10/09 00:10:12;;;;;;;26.37;16.33;;;18.00;99.90;;;;;;4264602;27;20130;-59
2023/10/09 00:12:16;;;;;;;28.10;15.23;;;17.90;99.90;;;;;;4264041;27;20533;-59
2023/10/09 00:14:19;;;;;;;30.20;15.55;;;17.90;99.90;;;;;;4246017;27;20044;-60
2023/10/09 00:16:35;;;;;;;23.20;14.63;;;17.90;99.90;;;;;;4264283;27;20125;-59
2023/10/09 00:18:37;;;;;;;31.80;14.75;;;17.90;99.90;;;;;;4264697;27;20050;-59
2023/10/09 00:20:42;;;;;;;30.40;14.85;;;17.80;99.90;;;;;;4264749;27;20449;-58
2023/10/09 00:22:46;;;;;;;24.23;15.85;;;17.80;99.90;;;;;;4263941;27;20043;-59
2023/10/09 00:24:50;;;;;;;29.67;15.73;;;17.90;99.90;;;;;;4246264;27;20088;-58
2023/10/09 00:26:56;;;;;;;23.73;14.90;;;17.80;99.90;;;;;;4264537;27;20142;-58
2023/10/09 00:29:06;;;;;;;26.23;14.63;;;17.80;99.90;;;;;;4264150;27;20042;-59
2023/10/09 00:31:15;;;;;;;25.38;15.82;;;17.80;99.90;;;;;;4264514;27;20126;-59
2023/10/09 00:33:22;;;;;;;26.58;14.88;;;17.80;99.90;;;;;;4264506;27;20073;-59
2023/10/09 00:35:37;;;;;;;25.30;14.75;;;17.80;99.90;;;;;;4264356;27;20456;-58
2023/10/09 00:37:39;;;;;;;;;;;17.70;99.90;;;;;;4265138;27;20430;-58
2023/10/09 00:39:48;;;;;;;23.67;14.43;;;17.70;99.90;;;;;;4264564;27;20363;-57
2023/10/09 00:41:51;;;;;;;22.58;13.27;;;17.60;99.90;;;;;;4264367;27;20082;-58
2023/10/09 00:43:53;;;;;;;23.88;14.02;;;17.60;99.90;;;;;;4264623;27;20150;-57
2023/10/09 00:46:09;;;;;;;19.05;13.23;;;17.60;99.90;;;;;;4264694;27;20130;-58
2023/10/09 00:48:21;;;;;;;21.98;12.95;;;17.60;99.90;;;;;;4264550;27;20050;-60
2023/10/09 00:50:25;;;;;;;25.77;13.77;;;17.60;99.90;;;;;;4264897;27;20532;-60
2023/10/09 00:52:36;;;;;;;19.10;12.65;;;17.60;99.90;;;;;;4264906;27;20047;-58
2023/10/09 00:54:41;;;;;;;24.73;13.05;;;17.50;99.90;;;;;;4265219;27;20054;-58
2023/10/09 00:56:44;;;;;;;18.10;12.65;;;17.60;99.90;;;;;;4264708;27;20053;-59
2023/10/09 00:58:55;;;;;;;21.10;12.63;;;17.60;99.90;;;;;;4264318;27;20108;-58
2023/10/09 01:00:59;;;;;;;18.75;12.13;;;17.50;99.90;;;;;;4264533;27;20064;-59
2023/10/09 01:03:19;;;;;;;18.00;11.18;;;17.50;99.90;;;;;;4264214;27;20484;-59
2023/10/09 01:05:26;;;;;;;21.75;12.15;;;17.50;99.90;;;;;;4264284;27;20150;-58
2023/10/09 01:07:31;;;;;;;25.70;13.85;;;17.50;99.90;;;;;;4264839;27;20373;-56
2023/10/09 01:09:43;;;;;;;22.02;12.95;;;17.50;99.90;;;;;;4264715;27;20051;-58
2023/10/09 01:11:49;;;;;;;21.00;11.85;;;17.50;99.90;;;;;;4264541;27;20054;-58
2023/10/09 01:15:54;;;;;;;18.85;12.18;;;17.60;99.90;;;;;;4264288;27;20046;-58
2023/10/09 01:17:58;;;;;;;21.02;11.90;;;17.60;99.90;;;;;;4264151;27;20112;-59
2023/10/09 01:20:04;;;;;;;23.08;13.02;;;17.60;99.90;;;;;;4264116;27;20097;-58
2023/10/09 01:22:12;;;;;;;24.42;12.50;;;17.50;99.90;;;;;;4264007;27;20067;-56
2023/10/09 01:24:18;;;;;;;21.65;11.73;;;17.50;99.90;;;;;;4266213;27;20053;-55
2023/10/09 01:26:22;;;;;;;17.92;10.90;;;17.50;99.90;;;;;;4267338;27;20071;-57
2023/10/09 01:28:26;;;;;;;20.73;11.32;;;17.40;99.90;;;;;;4266878;27;20043;-55
2023/10/09 01:30:28;;;;;;;22.60;11.02;;;17.40;99.90;;;;;;4266979;27;20404;-57
2023/10/09 01:32:30;;;;;;;25.27;12.60;;;17.40;99.90;;;;;;4266907;27;20047;-56
2023/10/09 01:34:44;;;;;;;23.25;10.68;;;17.40;99.90;;;;;;4267126;27;20067;-55
2023/10/09 01:36:49;;;;;;;17.20;11.52;;;17.40;99.90;;;;;;4266823;27;20099;-61
2023/10/09 01:38:53;;;;;;;19.33;11.50;;;17.40;99.90;;;;;;4267209;27;20051;-57
2023/10/09 01:41:05;;;;;;;16.63;10.95;;;17.40;99.90;;;;;;4267199;27;20054;-55
2023/10/09 01:43:09;;;;;;;26.67;12.07;;;17.40;99.90;;;;;;4267234;27;20053;-57
2023/10/09 01:47:21;;;;;;;16.55;10.57;;;17.40;99.90;;;;;;4266958;27;20464;-56
2023/10/09 01:49:29;;;;;;;21.10;10.87;;;17.40;99.90;;;;;;4266973;27;20057;-56
2023/10/09 01:51:34;;;;;;;23.58;10.43;;;17.40;99.90;;;;;;4266872;27;20061;-56
2023/10/09 01:53:38;;;;;;;;;;;17.40;99.90;;;;;;4267266;27;20049;-56
2023/10/09 01:55:40;;;;;;;18.73;10.05;;;17.40;99.90;;;;;;4266545;27;19969;-56
2023/10/09 01:57:44;;;;;;;15.63;10.15;;;17.30;99.90;;;;;;4266497;27;20043;-56
2023/10/09 01:59:49;;;;;;;17.55;10.30;;;17.30;99.90;;;;;;4248600;27;20419;-55
2023/10/09 02:01:54;;;;;;;21.98;9.98;;;17.30;99.90;;;;;;4266679;27;20489;-58
2023/10/09 02:04:03;;;;;;;20.98;10.05;;;17.30;99.90;;;;;;4266469;27;20126;-60
2023/10/09 02:06:18;;;;;;;23.35;10.02;;;17.30;99.90;;;;;;4266406;27;20049;-58
2023/10/09 02:08:26;;;;;;;15.38;10.05;;;17.20;99.90;;;;;;4266186;27;20077;-59
2023/10/09 02:12:33;;;;;;;21.92;10.43;;;17.20;99.90;;;;;;4266355;27;20047;-59
2023/10/09 02:14:41;;;;;;;;;;;17.30;99.90;;;;;;4266812;27;20050;-60
2023/10/09 02:16:43;;;;;;;23.80;10.85;;;17.20;99.90;;;;;;4266253;27;19940;-59
2023/10/09 02:18:58;;;;;;;18.90;10.15;;;17.10;99.90;;;;;;4266302;27;20078;-58
2023/10/09 02:23:13;;;;;;;18.70;10.25;;;17.10;99.90;;;;;;4266561;27;19941;-57
2023/10/09 02:25:20;;;;;;;21.92;10.85;;;17.00;99.90;;;;;;4265946;27;20539;-57
2023/10/09 02:27:45;;;;;;;22.27;11.02;;;17.00;99.90;;;;;;4266284;27;20053;-57
2023/10/09 02:29:49;;;;;;;18.35;10.52;;;17.00;99.90;;;;;;4266584;27;20050;-56
2023/10/09 02:32:00;;;;;;;17.83;10.23;;;17.00;99.90;;;;;;4266171;27;20052;-57
2023/10/09 02:34:05;;;;;;;16.40;10.00;;;17.00;99.90;;;;;;4266238;27;20061;-57
2023/10/09 02:36:07;;;;;;;21.13;10.88;;;17.00;99.90;;;;;;4266055;27;20047;-59
2023/10/09 02:38:14;;;;;;;18.55;10.55;;;17.00;99.90;;;;;;4247680;27;20563;-59
2023/10/09 02:40:24;;;;;;;20.30;10.45;;;17.00;99.90;;;;;;4266230;27;20043;-61
2023/10/09 02:42:28;;;;;;;19.88;9.88;;;17.00;99.90;;;;;;4247981;27;20525;-60
2023/10/09 02:44:34;;;;;;;15.98;10.50;;;17.00;99.90;;;;;;4266150;27;20496;-60
2023/10/09 02:46:39;;;;;;;17.80;10.88;;;17.00;99.90;;;;;;4265819;27;20118;-59
2023/10/09 02:48:45;;;;;;;22.48;12.02;;;17.10;99.90;;;;;;4265851;27;20073;-57
2023/10/09 02:50:50;;;;;;;25.65;11.77;;;17.10;99.90;;;;;;4265936;27;20053;-59
2023/10/09 02:52:59;;;;;;;25.63;11.18;;;17.10;99.90;;;;;;4265918;27;20090;-59
2023/10/09 02:55:07;;;;;;;17.92;9.93;;;17.20;99.90;;;;;;4265699;27;20142;-59
2023/10/09 02:57:16;;;;;;;22.67;10.82;;;17.20;99.90;;;;;;4266053;27;20099;-59
2023/10/09 02:59:21;;;;;;;15.93;8.93;;;17.20;99.90;;;;;;4265831;27;20046;-57
2023/10/09 03:01:23;;;;;;;15.88;9.60;;;17.20;99.90;;;;;;4265946;27;20568;-57
2023/10/09 03:03:28;;;;;;;26.08;10.30;;;17.20;99.90;;;;;;4265850;27;20043;-57
2023/10/09 03:05:30;;;;;;;20.33;9.38;;;17.10;99.90;;;;;;4265631;27;20046;-57
2023/10/09 03:07:34;;;;;;;21.13;9.38;;;17.10;99.90;;;;;;4266257;27;20121;-57
2023/10/09 03:09:38;;;;;;;23.60;10.40;;;17.10;99.90;;;;;;4265370;27;20049;-59
2023/10/09 03:11:41;;;;;;;19.15;9.82;;;17.10;99.90;;;;;;4265519;27;20038;-60
2023/10/09 03:13:45;;;;;;;21.25;9.15;;;17.10;99.90;;;;;;4265422;27;20479;-56
2023/10/09 03:15:48;;;;;;;22.20;8.63;;;17.00;99.90;;;;;;4265371;27;20043;-58
2023/10/09 03:17:50;;;;;;;22.77;8.82;;;17.00;99.90;;;;;;4265336;27;20461;-58
2023/10/09 03:19:54;;;;;;;23.15;9.85;;;17.00;99.90;;;;;;4265486;27;20381;-58
2023/10/09 03:21:57;;;;;;;17.85;8.27;;;17.00;99.90;;;;;;4265217;27;20055;-58
2023/10/09 03:24:04;;;;;;;17.73;8.32;;;17.00;99.90;;;;;;4264993;27;20492;-57
2023/10/09 03:26:08;;;;;;;19.90;9.07;;;16.90;99.90;;;;;;4246873;27;20043;-59
2023/10/09 03:28:22;;;;;;;21.20;9.88;;;16.90;99.90;;;;;;4265209;27;20070;-57
2023/10/09 03:30:24;;;;;;;18.17;8.70;;;16.90;99.90;;;;;;4246859;27;20118;-58
2023/10/09 03:32:26;;;;;;;22.95;9.95;;;16.90;99.90;;;;;;4265247;27;20038;-59
2023/10/09 03:34:30;;;;;;;22.77;8.98;;;16.90;99.90;;;;;;4264994;27;20046;-59
2023/10/09 03:36:38;;;;;;;19.23;8.48;;;16.90;99.90;;;;;;4264923;27;20411;-59
2023/10/09 03:38:40;;;;;;;20.85;8.60;;;16.90;99.90;;;;;;4264559;27;20054;-58
2023/10/09 03:40:43;;;;;;;15.77;8.43;;;16.90;99.90;;;;;;4264792;27;20047;-59
2023/10/09 03:42:45;;;;;;;15.25;7.82;;;16.90;99.90;;;;;;4265115;27;20042;-59
2023/10/09 03:44:53;;;;;;;18.63;8.07;;;16.90;99.90;;;;;;4265127;27;20050;-59
2023/10/09 03:46:56;;;;;;;19.15;8.20;;;16.90;99.90;;;;;;4264288;27;20480;-58
2023/10/09 03:49:02;;;;;;;16.20;7.53;;;16.90;99.90;;;;;;4264845;27;20046;-57
2023/10/09 03:51:15;;;;;;;19.42;8.15;;;16.90;99.90;;;;;;4264648;27;20051;-58
2023/10/09 03:53:24;;;;;;;17.33;7.68;;;16.90;99.90;;;;;;4264459;27;20066;-62
2023/10/09 03:55:32;;;;;;;15.77;7.70;;;16.80;99.90;;;;;;4264692;27;20081;-59
2023/10/09 03:57:34;;;;;;;21.25;9.10;;;16.80;99.90;;;;;;4264665;27;20460;-58
2023/10/09 03:59:37;;;;;;;23.15;8.48;;;16.80;99.90;;;;;;4264660;27;20066;-59
2023/10/09 04:01:39;;;;;;;19.92;8.55;;;16.80;99.90;;;;;;4264525;27;20042;-59
2023/10/09 04:03:46;;;;;;;16.02;8.18;;;16.70;99.90;;;;;;4264592;27;20070;-56
2023/10/09 04:05:53;;;;;;;18.75;7.65;;;16.70;99.90;;;;;;4246639;27;20528;-58
2023/10/09 04:07:58;;;;;;;21.05;7.90;;;16.70;99.90;;;;;;4266087;27;20047;-59
2023/10/09 04:11:04;;;;;;;21.42;8.93;;;16.70;99.90;;;;;;4265989;27;20121;-59
2023/10/09 04:12:34;;;;;;;22.02;8.38;;;16.60;99.90;;;;;;4247272;27;20211;-59
2023/10/09 04:14:36;;;;;;;13.40;7.70;;;16.60;99.90;;;;;;4265314;27;20050;-58
2023/10/09 04:16:51;;;;;;;22.73;9.38;;;16.60;99.90;;;;;;4264822;27;20125;-58
2023/10/09 04:18:56;;;;;;;17.25;8.73;;;16.60;99.90;;;;;;4264908;27;20050;-59
2023/10/09 04:23:34;;;;;;;15.90;7.45;;;16.60;99.90;;;;;;4265327;27;20537;-57
2023/10/09 04:25:41;;;;;;;20.02;8.10;;;16.50;99.90;;;;;;4264964;27;20050;-63
2023/10/09 04:27:46;;;;;;;18.90;7.93;;;16.50;99.90;;;;;;4264612;27;20046;-59
2023/10/09 04:29:49;;;;;;;12.88;7.68;;;16.50;99.90;;;;;;4264715;27;20117;-58
2023/10/09 04:31:51;;;;;;;18.58;8.00;;;16.50;99.90;;;;;;4246296;28;20531;-58
2023/10/09 04:34:21;;;;;;;21.05;7.80;;;16.50;99.90;;;;;;4265198;27;20085;-58
2023/10/09 04:36:21;;;;;;;14.70;7.57;;;16.50;99.90;;;;;;4264472;27;20054;-58
2023/10/09 04:38:24;;;;;;;16.63;7.78;;;16.50;99.90;;;;;;4264516;27;20407;-58
2023/10/09 04:42:58;;;;;;;16.85;7.85;;;16.40;99.90;;;;;;4264309;27;20078;-56
2023/10/09 04:50:01;;;;;;;13.77;7.68;;;16.50;99.90;;;;;;4264838;27;20047;-59
2023/10/09 04:51:38;;;;;;;17.23;7.22;;;16.50;99.90;;;;;;4264430;27;20066;-59
2023/10/09 04:53:47;;;;;;;19.33;8.00;;;16.50;99.90;;;;;;4264599;27;20039;-56
2023/10/09 04:55:57;;;;;;;17.85;7.30;;;16.40;99.90;;;;;;4264710;27;20046;-56
2023/10/09 04:58:01;;;;;;;14.98;7.55;;;16.40;99.90;;;;;;4266432;27;20472;-58
2023/10/09 05:02:37;;;;;;;13.48;7.35;;;16.40;99.90;;;;;;4198042;28;20063;-57
2023/10/09 05:04:41;;;;;;;19.52;7.63;;;16.50;99.90;;;;;;4197392;28;20474;-56
2023/10/09 05:06:54;;;;;;;20.90;7.97;;;16.40;99.90;;;;;;4197787;28;20052;-56
2023/10/09 05:09:07;;;;;;;14.02;7.50;;;16.40;99.90;;;;;;4197745;28;20064;-56
2023/10/09 05:11:34;;;;;;;25.25;8.18;;;16.40;99.90;;;;;;4197844;28;20048;-56
2023/10/09 05:15:46;;;;;;;18.27;7.57;;;16.40;99.90;;;;;;4197471;28;20083;-58
2023/10/09 05:17:56;;;;;;;15.38;7.18;;;16.40;99.90;;;;;;4197616;28;20075;-56
2023/10/09 05:20:57;;;;;;;16.08;7.20;;;16.40;99.90;;;;;;4197230;28;20110;-56
2023/10/09 05:22:36;;;;;;;19.95;6.85;;;16.30;99.90;;;;;;4197478;28;20355;-60
2023/10/09 05:24:45;;;;;;;17.17;7.68;;;16.30;99.90;;;;;;4197564;28;20083;-61
2023/10/09 05:28:58;;;;;;;14.70;6.65;;;16.30;99.90;;;;;;4197555;28;20072;-56
2023/10/09 05:31:07;;;;;;;19.83;7.45;;;16.30;99.90;;;;;;4197492;28;20044;-58
2023/10/09 05:33:28;;;;;;;19.38;6.65;;;16.20;99.90;;;;;;4196971;28;20102;-58
2023/10/09 05:35:39;;;;;;;15.40;6.75;;;16.20;99.90;;;;;;4197297;28;20056;-60
2023/10/09 05:37:45;;;;;;;17.42;7.57;;;16.20;99.90;;;;;;4197212;28;20051;-61
2023/10/09 05:40:35;;;;;;;17.45;7.32;;;16.20;99.90;;;;;;4220327;27;20385;-60
2023/10/09 05:42:17;;;;;;;22.08;7.10;;;16.20;99.90;;;;;;4242761;27;20504;-60
2023/10/09 05:47:22;;;;;;;25.98;7.07;;;16.20;99.90;;;;;;4250413;27;20142;-61
2023/10/09 05:49:19;;;;;;;19.23;6.82;;;16.10;99.90;;;;;;4249453;27;20518;-60
2023/10/09 05:51:43;;;;;;;21.15;7.10;;;16.10;99.90;;;;;;4249468;27;20065;-58
2023/10/09 06:08:04;;;;;;;17.92;7.53;;;16.00;99.90;;;;;;4213529;28;20074;-58
2023/10/09 06:10:17;;;;;;;20.55;7.28;;;15.90;99.90;;;;;;4212645;28;20252;-57
2023/10/09 06:18:41;;;;;;;20.48;8.15;;;15.90;99.90;;;;;;4213182;28;20449;-60
2023/10/09 06:23:23;;;;;;;25.98;8.40;;;15.90;99.90;;;;;;4213321;28;20040;-59
2023/10/09 06:25:39;;;;;;;19.63;7.25;;;15.90;99.90;;;;;;4213309;28;20495;-60
2023/10/09 06:34:35;;;;;;;19.67;7.68;;;16.00;99.90;;;;;;4179761;28;20107;-61
2023/10/09 06:36:46;;;;;;;27.00;8.50;;;16.10;99.90;;;;;;4179678;28;20048;-57
2023/10/09 06:39:50;;;;;;;20.80;7.60;;;16.10;99.90;;;;;;4179698;28;20045;-59
2023/10/09 06:45:43;;;;;;;21.23;8.15;;;16.00;99.90;;;;;;4179703;28;20067;-60
2023/10/09 06:52:57;;;;;;;24.75;7.15;;;16.10;99.90;;;;;;4162788;28;20049;-60
2023/10/09 06:55:09;;;;;;;24.13;7.22;;;16.10;99.90;;;;;;4163489;28;20132;-60
2023/10/09 06:57:43;;;;;;;18.70;6.72;;;16.10;99.90;;;;;;4162890;28;20438;-58
2023/10/09 06:59:43;;;;;;;19.98;8.20;;;16.10;99.90;;;;;;4162608;28;20128;-60
2023/10/09 07:01:49;;;;;;;24.88;7.35;;;16.10;99.90;;;;;;4162478;28;20419;-60
2023/10/09 07:03:53;;;;;;;20.10;7.13;;;16.20;99.90;;;;;;4162746;28;20046;-59
2023/10/09 07:06:09;;;;;;;24.05;7.72;;;16.30;99.90;;;;;;4162807;28;20053;-59
2023/10/09 07:08:31;;;;;;;20.63;7.47;;;16.40;99.90;;;;;;4162864;28;20545;-59
2023/10/09 07:10:39;;;;;;;15.80;7.45;;;16.40;99.90;;;;;;4162637;28;20050;-58
2023/10/09 07:12:44;;;;;;;19.67;8.05;;;16.50;99.90;;;;;;4162737;28;20050;-60
2023/10/09 07:16:59;;;;;;;16.17;7.03;;;16.60;99.90;;;;;;4165507;28;20128;-58
2023/10/09 07:19:09;;;;;;;18.35;7.05;;;16.60;99.90;;;;;;4179012;28;20399;-59
2023/10/09 07:21:17;;;;;;;22.48;8.45;;;16.70;99.90;;;;;;4178052;28;20061;-59
2023/10/09 07:23:21;;;;;;;31.45;9.90;;;16.80;99.90;;;;;;4178976;28;20140;-59
2023/10/09 07:25:42;;;;;;;16.50;7.38;;;16.90;99.90;;;;;;4179013;28;20055;-59
2023/10/09 07:27:44;;;;;;;19.85;7.97;;;17.00;99.90;;;;;;4178865;28;20049;-61
2023/10/09 07:29:49;;;;;;;28.25;9.65;;;17.10;99.90;;;;;;4211932;27;20088;-59
2023/10/09 07:32:12;;;;;;;21.42;8.57;;;17.20;99.90;;;;;;4247945;27;20093;-59
2023/10/09 07:34:31;;;;;;;27.92;10.40;;;17.30;99.90;;;;;;4248032;27;20130;-59
2023/10/09 07:36:37;;;;;;;29.45;10.63;;;17.40;99.90;;;;;;4229755;28;20122;-59
2023/10/09 07:38:44;;;;;;;21.45;9.75;;;17.50;99.90;;;;;;4247545;27;20098;-59
2023/10/09 07:41:33;;;;;;;29.35;11.65;;;17.50;99.90;;;;;;4247967;27;20046;-59
2023/10/09 07:43:26;;;;;;;19.38;8.85;;;17.60;99.90;;;;;;4247888;27;20097;-59
2023/10/09 07:47:45;;;;;;;22.17;8.38;;;17.70;99.90;;;;;;4248061;27;20126;-59
2023/10/09 07:49:53;;;;;;;29.20;8.40;;;17.70;99.90;;;;;;4247635;27;20114;-59
2023/10/09 07:51:58;;;;;;;23.73;9.20;;;17.80;99.90;;;;;;4247626;27;20074;-59
2023/10/09 07:54:07;;;;;;;24.48;8.07;;;17.90;99.90;;;;;;4247717;27;20077;-59
2023/10/09 07:56:09;;;;;;;25.80;8.13;;;17.90;99.90;;;;;;4247667;27;20038;-57
2023/10/09 07:58:11;;;;;;;28.65;9.13;;;18.00;99.90;;;;;;4247422;27;20035;-59
2023/10/09 08:02:36;;;;;;;18.50;8.20;;;18.10;99.90;;;;;;4247363;27;20407;-58
2023/10/09 08:04:48;;;;;;;25.65;7.90;;;18.10;99.90;;;;;;4247510;27;20054;-58
2023/10/09 08:06:53;;;;;;;27.77;8.57;;;18.10;99.90;;;;;;4247465;27;20159;-58
2023/10/09 08:13:56;;;;;;;28.27;8.38;;;18.20;99.90;;;;;;4247340;28;20382;-59
2023/10/09 08:16:03;;;;;;;21.50;8.07;;;18.30;99.90;;;;;;4247658;28;20543;-58
2023/10/09 08:18:13;;;;;;;23.58;7.82;;;18.30;99.90;;;;;;4243488;28;20121;-58
2023/10/09 08:20:17;;;;;;;22.42;7.78;;;18.30;99.80;;;;;;4264520;27;20050;-58
2023/10/09 08:24:40;;;;;;;18.70;7.72;;;18.40;99.50;;;;;;4264509;27;20534;-60
2023/10/09 08:27:27;;;;;;;22.10;8.05;;;18.40;99.40;;;;;;4264660;27;20095;-58
2023/10/09 08:29:17;;;;;;;22.45;7.93;;;18.40;99.30;;;;;;4264373;27;20046;-60
2023/10/09 08:31:34;;;;;;;16.65;7.22;;;18.40;99.40;;;;;;4264730;27;20043;-59
2023/10/09 08:33:40;;;;;;;13.73;6.75;;;18.50;99.20;;;;;;4267698;27;20047;-59
2023/10/09 08:35:48;;;;;;;22.42;7.13;;;18.50;99.10;;;;;;4267893;27;20050;-59
2023/10/09 08:37:52;;;;;;;27.15;8.02;;;18.50;99.00;;;;;;4268001;27;20047;-59
2023/10/09 08:39:55;;;;;;;18.00;7.28;;;18.60;98.90;;;;;;4267987;27;20051;-58
2023/10/09 08:41:57;;;;;;;16.33;7.15;;;18.60;98.80;;;;;;4249529;27;20070;-58
2023/10/09 08:44:03;;;;;;;16.27;6.68;;;18.60;98.60;;;;;;4267882;27;20051;-59
2023/10/09 08:46:06;;;;;;;22.02;8.48;;;18.70;98.60;;;;;;4267704;27;20410;-58
2023/10/09 08:48:15;;;;;;;23.88;8.00;;;18.70;98.70;;;;;;4267606;27;20043;-58
2023/10/09 08:50:19;;;;;;;24.30;8.50;;;18.70;98.60;;;;;;4267535;27;20053;-58
2023/10/09 08:52:21;;;;;;;29.50;9.75;;;18.70;98.60;;;;;;4267376;27;20446;-59
2023/10/09 08:54:25;;;;;;;24.63;9.35;;;18.70;98.60;;;;;;4267742;27;20399;-59
2023/10/09 08:56:27;;;;;;;26.90;8.80;;;18.70;98.60;;;;;;4267299;27;20046;-58
2023/10/09 08:58:36;;;;;;;27.63;9.70;;;18.80;98.60;;;;;;4267517;27;20459;-59
2023/10/09 09:00:43;;;;;;;24.92;8.65;;;18.80;98.50;;;;;;4267731;27;20391;-58
2023/10/09 09:02:47;;;;;;;30.52;9.05;;;18.90;98.50;;;;;;4267244;27;20126;-59
2023/10/09 09:04:50;;;;;;;24.77;8.67;;;18.90;98.40;;;;;;4267490;27;20053;-59
2023/10/09 09:06:53;;;;;;;24.23;8.73;;;19.00;98.30;;;;;;4267541;27;20430;-59
2023/10/09 09:09:13;;;;;;;20.77;8.80;;;19.00;98.30;;;;;;4267444;27;20039;-59
2023/10/09 09:11:22;;;;;;;28.13;9.02;;;19.10;98.30;;;;;;4248623;27;20428;-58
2023/10/09 09:13:25;;;;;;;18.10;8.32;;;19.10;98.20;;;;;;4267244;27;20042;-58
2023/10/09 09:15:27;;;;;;;22.40;8.35;;;19.20;98.20;;;;;;4267390;27;20071;-59
2023/10/09 09:17:32;;;;;;;20.65;8.95;;;19.20;98.00;;;;;;4267518;27;20079;-59
2023/10/09 09:19:37;;;;;;;21.30;8.80;;;19.20;97.70;;;;;;4267072;27;20047;-59
2023/10/09 09:21:44;;;;;;;;;;;19.30;97.60;;;;;;4268317;27;20065;-59
2023/10/09 09:23:54;;;;;;;16.90;8.13;;;19.30;97.40;;;;;;4267363;27;19930;-58
2023/10/09 09:26:01;;;;;;;22.80;9.40;;;19.30;97.60;;;;;;4266761;27;20050;-59
2023/10/09 09:28:12;;;;;;;23.92;8.70;;;19.40;97.40;;;;;;4267094;27;20042;-58
2023/10/09 09:30:23;;;;;;;20.27;8.98;;;19.40;97.10;;;;;;4267242;27;20403;-59
2023/10/09 09:32:35;;;;;;;21.13;8.95;;;19.50;97.00;;;;;;4267184;27;20046;-59
2023/10/09 09:34:44;;;;;;;17.58;8.73;;;19.50;96.90;;;;;;4267074;27;20047;-59
2023/10/09 09:36:53;;;;;;;26.35;9.23;;;19.60;96.90;;;;;;4267193;27;20043;-60
2023/10/09 09:39:01;;;;;;;25.42;9.15;;;19.60;96.90;;;;;;4266748;27;20084;-59
2023/10/09 09:41:07;;;;;;;23.40;9.05;;;19.70;96.90;;;;;;4266795;27;20042;-59
2023/10/09 09:43:21;;;;;;;30.80;8.88;;;19.80;96.90;;;;;;4267105;27;20399;-59
2023/10/09 09:45:24;;;;;;;30.52;9.85;;;19.80;96.90;;;;;;4265944;27;20052;-59
2023/10/09 09:47:27;;;;;;;22.52;8.38;;;19.90;96.90;;;;;;4266835;27;20070;-58
2023/10/09 09:49:31;;;;;;;26.20;9.60;;;19.90;96.60;;;;;;4266786;27;20480;-59
2023/10/09 09:51:34;;;;;;;29.95;9.55;;;20.00;96.50;;;;;;4266601;27;20555;-59
2023/10/09 09:53:36;;;;;;;28.95;9.63;;;20.00;96.30;;;;;;4266704;27;20480;-57
2023/10/09 09:55:41;;;;;;;30.63;9.57;;;20.10;96.10;;;;;;4266526;27;20046;-57
2023/10/09 09:57:51;;;;;;;25.08;9.90;;;20.20;96.00;;;;;;4266852;27;20377;-57
2023/10/09 09:59:57;;;;;;;31.83;9.40;;;20.20;95.50;;;;;;4266928;27;20138;-60
2023/10/09 10:02:06;;;;;;;30.40;9.98;;;20.30;95.40;;;;;;4267123;27;20046;-57
2023/10/09 10:04:13;;;;;;;34.83;9.80;;;20.40;95.30;;;;;;4266716;27;20047;-58
2023/10/09 10:06:19;;;;;;;22.55;9.48;;;20.40;95.30;;;;;;4266789;27;20047;-60
2023/10/09 10:08:30;;;;;;;30.70;9.05;;;20.50;95.20;;;;;;4266698;27;20047;-59
2023/10/09 10:10:37;;;;;;;29.33;9.32;;;20.60;95.10;;;;;;4266648;27;20088;-59
2023/10/09 10:13:01;;;;;;;24.67;9.88;;;20.60;95.10;;;;;;4266251;27;20113;-58
2023/10/09 10:15:08;;;;;;;25.85;9.85;;;20.70;94.70;;;;;;4266169;27;20046;-59
2023/10/09 10:17:21;;;;;;;29.45;9.73;;;20.80;94.60;;;;;;4266191;27;20483;-58
2023/10/09 10:19:23;;;;;;;26.67;9.70;;;20.80;94.40;;;;;;4266102;27;20122;-58
2023/10/09 10:23:36;;;;;;;33.35;10.27;;;21.00;93.70;;;;;;4265709;27;20053;-58
2023/10/09 10:25:41;;;;;;;29.52;9.30;;;21.00;93.50;;;;;;4266159;27;20069;-58
2023/10/09 10:28:00;;;;;;;28.27;9.68;;;21.10;92.80;;;;;;4266261;27;20117;-59
2023/10/09 10:30:33;;;;;;;23.98;8.23;;;21.20;92.90;;;;;;4266239;27;20073;-57
2023/10/09 10:32:54;;;;;;;26.95;9.07;;;21.20;92.90;;;;;;4266155;27;20117;-59
2023/10/09 10:34:56;;;;;;;27.27;9.13;;;21.30;92.80;;;;;;4266130;27;20442;-58
2023/10/09 10:36:59;;;;;;;20.55;8.43;;;21.40;92.80;;;;;;4266391;27;20049;-62
2023/10/09 10:39:07;;;;;;;28.60;7.65;;;21.50;92.50;;;;;;4266122;27;20049;-61
2023/10/09 10:41:16;;;;;;;22.17;7.78;;;21.50;91.20;;;;;;4266226;27;20468;-59
2023/10/09 10:43:31;;;;;;;15.82;6.43;;;21.50;91.60;;;;;;4265979;27;20400;-58
2023/10/09 10:45:43;;;;;;;19.90;7.40;;;21.60;91.10;;;;;;4266067;27;20050;-58
2023/10/09 10:47:48;;;;;;;17.77;7.28;;;21.70;91.40;;;;;;4266111;27;20042;-62
2023/10/09 10:49:57;;;;;;;14.68;6.22;;;21.80;91.00;;;;;;4265924;27;20113;-59
2023/10/09 10:52:17;;;;;;;16.45;6.15;;;21.80;90.50;;;;;;4247434;27;20069;-59
2023/10/09 10:54:45;;;;;;;13.75;6.75;;;22.00;90.50;;;;;;4265681;27;20043;-59
2023/10/09 10:56:51;;;;;;;16.70;6.55;;;22.00;90.40;;;;;;4265667;27;20475;-58
2023/10/09 10:59:11;;;;;;;19.00;6.32;;;22.10;89.60;;;;;;4265774;27;20121;-55
2023/10/09 11:01:15;;;;;;;16.25;6.15;;;22.10;89.90;;;;;;4265653;27;20458;-58
2023/10/09 11:03:29;;;;;;;13.30;5.60;;;22.10;89.60;;;;;;4265615;27;20097;-58
2023/10/09 11:05:38;;;;;;;9.15;4.82;;;22.20;89.30;;;;;;4265491;27;20099;-59
2023/10/09 11:07:41;;;;;;;12.70;5.18;;;22.20;87.50;;;;;;4265563;27;20049;-58
2023/10/09 11:09:59;;;;;;;18.35;6.00;;;22.20;87.40;;;;;;4265617;27;20058;-58
2023/10/09 11:12:23;;;;;;;10.52;5.53;;;22.30;86.60;;;;;;4265358;27;20050;-59
2023/10/09 11:14:25;;;;;;;12.88;5.18;;;22.30;85.70;;;;;;4265533;27;20042;-58
2023/10/09 11:18:42;;;;;;;12.75;4.88;;;22.40;81.80;;;;;;4265472;27;20453;-57
2023/10/09 11:25:18;;;;;;;14.95;5.07;;;22.50;81.80;;;;;;4265593;27;20072;-57
2023/10/09 11:27:24;;;;;;;11.63;4.50;;;22.60;81.70;;;;;;4265161;27;20555;-56
2023/10/09 11:31:33;;;;;;;12.30;4.80;;;22.70;80.30;;;;;;4265493;27;20073;-57
2023/10/09 11:33:43;;;;;;;9.85;4.40;;;22.70;80.30;;;;;;4264959;27;20074;-58
2023/10/09 11:35:57;;;;;;;7.93;4.32;;;22.80;80.10;;;;;;4264976;27;20089;-56
2023/10/09 11:37:59;;;;;;;10.38;4.63;;;22.90;77.90;;;;;;4264898;27;20042;-56
2023/10/09 11:40:01;;;;;;;15.00;5.13;;;23.00;78.60;;;;;;4265267;27;20042;-56
2023/10/09 11:42:05;;;;;;;10.23;5.28;;;23.10;76.50;;;;;;4264984;27;20043;-56
2023/10/09 11:44:18;;;;;;;12.30;5.00;;;23.10;76.80;;;;;;4265257;27;20255;-55
2023/10/09 11:46:37;;;;;;;9.63;4.90;;;23.20;76.20;;;;;;4265194;27;20153;-57
2023/10/09 11:49:13;;;;;;;12.40;4.90;;;23.20;76.10;;;;;;4246554;27;20081;-60
2023/10/09 11:51:21;;;;;;;9.30;4.85;;;23.20;72.60;;;;;;4263862;27;20046;-60
2023/10/09 11:55:25;;;;;;;12.32;5.07;;;23.30;73.40;;;;;;4264691;27;20043;-61
2023/10/09 11:57:31;;;;;;;10.77;4.95;;;23.30;73.70;;;;;;4247472;27;20115;-57
2023/10/09 11:59:37;;;;;;;16.52;5.82;;;23.40;72.90;;;;;;4265161;27;20047;-59
2023/10/09 12:01:52;;;;;;;9.32;5.20;;;23.30;74.10;;;;;;4264992;27;20122;-60
2023/10/09 12:03:56;;;;;;;13.88;5.75;;;23.30;75.00;;;;;;4264892;27;20050;-59
2023/10/09 12:06:05;;;;;;;10.80;6.13;;;23.20;75.20;;;;;;4264954;27;20042;-59
2023/10/09 12:08:08;;;;;;;14.63;7.40;;;23.20;75.60;;;;;;4264747;27;20513;-60
2023/10/09 12:10:15;;;;;;;18.75;6.05;;;23.20;75.90;;;;;;4265154;27;20070;-60
2023/10/09 12:12:18;;;;;;;15.45;5.85;;;23.20;76.80;;;;;;4264734;27;20222;-56
2023/10/09 12:14:28;;;;;;;15.70;5.57;;;23.10;76.70;;;;;;4265209;27;20095;-56
2023/10/09 12:16:38;;;;;;;14.88;5.32;;;23.10;76.70;;;;;;4264740;27;20050;-56
2023/10/09 12:18:40;;;;;;;10.77;5.70;;;23.10;76.50;;;;;;4265448;27;20082;-66
2023/10/09 12:20:51;;;;;;;8.85;4.43;;;23.10;76.60;;;;;;4265525;27;20078;-57
2023/10/09 12:22:54;;;;;;;10.32;4.75;;;23.00;75.50;;;;;;4266338;27;20464;-58
2023/10/09 12:24:59;;;;;;;11.27;5.10;;;23.00;75.20;;;;;;4265046;27;20051;-56
2023/10/09 12:27:01;;;;;;;7.53;4.78;;;23.00;75.10;;;;;;4265030;27;20054;-57
2023/10/09 12:29:03;;;;;;;9.05;4.55;;;23.00;74.70;;;;;;4264975;27;20042;-57
2023/10/09 12:31:06;;;;;;;10.27;4.47;;;23.00;74.80;;;;;;4265324;27;20042;-57